Puerto Maldonado, Peru
Current Conditions -  °F | °C
As of 12:00 PM on Friday 28 Nov 2014 (Local Time) from SPTU Reporting Station
Broken Clouds Broken Clouds  
Wind Chill: 84°   Ceiling: 800
Heat Index: 94°   Visibility: 6mi
Dew Point: 77°   Wind: 3mph
Humidity: 79%   Direction: 270°W
Pressure: 29.85"   Gusts: NA
Location:  12.6°S, 69.2°W
Report Text: SPTU 281700Z 27003KT 9000 BKN008 BKN020 29/25 Q1011 RMK BIRD HAZARD RWY 01/19 PP000
Loading
Personal Weather Stations






























Interactive Weather Map New forecast layout! Learn more

10-Day Weather Forecast

Advertisements
Track Severe Weather on mobile